createdAt,value
2022-09-18T00:00:08.447Z,92.13
2022-09-18T00:00:18.608Z,92.13
2022-09-18T00:00:28.679Z,92.23
2022-09-18T00:00:38.747Z,92.23
2022-09-18T00:00:48.851Z,92.33
2022-09-18T00:00:58.899Z,92.33
2022-09-18T00:01:08.980Z,92.33
2022-09-18T00:01:19.060Z,92.43
2022-09-18T00:01:29.126Z,92.43
2022-09-18T00:01:39.245Z,92.54
2022-09-18T00:01:49.477Z,92.54
2022-09-18T00:01:59.486Z,92.64
2022-09-18T00:02:09.452Z,92.64
2022-09-18T00:02:19.470Z,92.74
2022-09-18T00:02:29.559Z,92.74
2022-09-18T00:02:39.744Z,92.84
2022-09-18T00:02:49.729Z,92.84
2022-09-18T00:02:59.727Z,92.84
2022-09-18T00:03:09.870Z,92.84
2022-09-18T00:03:19.985Z,92.84
2022-09-18T00:03:30.047Z,92.94
2022-09-18T00:03:40.117Z,93.09
2022-09-18T00:03:50.242Z,93.05
2022-09-18T00:04:00.304Z,93.05
2022-09-18T00:04:10.398Z,93.15
2022-09-18T00:04:20.469Z,93.19
2022-09-18T00:04:30.577Z,93.25
2022-09-18T00:04:40.668Z,93.25
2022-09-18T00:04:50.729Z,93.35
2022-09-18T00:05:00.788Z,93.35
2022-09-18T00:05:10.855Z,93.45
2022-09-18T00:05:20.927Z,93.45
2022-09-18T00:05:30.987Z,93.45
2022-09-18T00:05:41.067Z,93.50
2022-09-18T00:05:51.216Z,93.60
2022-09-18T00:06:01.305Z,93.60
2022-09-18T00:06:11.371Z,93.70
2022-09-18T00:06:21.426Z,93.70
2022-09-18T00:06:31.467Z,93.80
2022-09-18T00:06:41.545Z,93.91
2022-09-18T00:06:51.607Z,93.91
2022-09-18T00:07:01.678Z,94.01
2022-09-18T00:07:11.737Z,94.01
2022-09-18T00:07:21.797Z,94.11
2022-09-18T00:07:31.889Z,94.11
2022-09-18T00:07:42.003Z,94.11
2022-09-18T00:07:52.068Z,94.21
2022-09-18T00:08:02.147Z,94.32
2022-09-18T00:08:12.283Z,94.32
2022-09-18T00:08:22.316Z,94.42
2022-09-18T00:08:32.377Z,94.42
2022-09-18T00:08:42.464Z,94.42
2022-09-18T00:08:52.542Z,94.52
2022-09-18T00:09:02.655Z,94.52
2022-09-18T00:09:12.700Z,94.52
2022-09-18T00:09:22.766Z,94.62
2022-09-18T00:09:32.827Z,94.62
2022-09-18T00:09:42.895Z,94.73
2022-09-18T00:09:52.956Z,94.73
2022-09-18T00:10:05.617Z,94.73
2022-09-18T00:10:13.146Z,94.73
2022-09-18T00:10:23.220Z,94.73
2022-09-18T00:10:33.335Z,94.73
2022-09-18T00:10:43.397Z,94.73
2022-09-18T00:10:53.467Z,94.73
2022-09-18T00:11:03.687Z,94.82
2022-09-18T00:11:13.614Z,94.82
2022-09-18T00:11:23.657Z,94.82
2022-09-18T00:11:33.747Z,94.93
2022-09-18T00:11:43.828Z,95.03
2022-09-18T00:11:53.909Z,95.03
2022-09-18T00:12:03.987Z,95.03
2022-09-18T00:12:14.058Z,95.13
2022-09-18T00:12:24.197Z,95.13
2022-09-18T00:12:34.255Z,95.13
2022-09-18T00:12:44.318Z,95.13
2022-09-18T00:12:54.428Z,95.23
2022-09-18T00:13:04.520Z,95.34
2022-09-18T00:13:14.595Z,95.34
2022-09-18T00:13:24.704Z,95.44
2022-09-18T00:13:34.838Z,95.44
2022-09-18T00:13:44.900Z,95.44
2022-09-18T00:13:54.987Z,95.54
2022-09-18T00:14:05.056Z,95.54
2022-09-18T00:14:15.159Z,95.54
2022-09-18T00:14:25.226Z,95.54
2022-09-18T00:14:35.301Z,95.54
2022-09-18T00:14:45.377Z,95.54
2022-09-18T00:14:55.443Z,95.54
2022-09-18T00:15:05.534Z,95.44
2022-09-18T00:15:15.597Z,95.44
2022-09-18T00:15:25.666Z,95.44
2022-09-18T00:15:35.736Z,95.44
2022-09-18T00:15:45.886Z,95.54
2022-09-18T00:15:56.098Z,95.54
2022-09-18T00:16:06.110Z,95.54
2022-09-18T00:16:16.375Z,95.54
2022-09-18T00:16:26.369Z,95.64
2022-09-18T00:16:36.493Z,95.64
2022-09-18T00:16:46.610Z,95.64
2022-09-18T00:16:56.716Z,95.64
2022-09-18T00:17:09.181Z,95.64
2022-09-18T00:17:16.856Z,95.64
2022-09-18T00:17:26.945Z,95.64
2022-09-18T00:17:37.026Z,95.64
2022-09-18T00:17:47.178Z,95.75
2022-09-18T00:17:57.259Z,95.75
2022-09-18T00:18:07.316Z,95.85
2022-09-18T00:18:17.396Z,95.85
2022-09-18T00:18:27.465Z,95.95
2022-09-18T00:18:37.553Z,95.95
2022-09-18T00:18:47.678Z,95.95
2022-09-18T00:18:57.688Z,95.85
2022-09-18T00:19:07.686Z,95.85
2022-09-18T00:19:17.717Z,95.85
2022-09-18T00:19:27.796Z,95.85
2022-09-18T00:19:37.829Z,95.89
2022-09-18T00:19:47.886Z,95.85
2022-09-18T00:19:57.904Z,95.89
2022-09-18T00:20:07.946Z,95.89
2022-09-18T00:20:17.966Z,95.89
2022-09-18T00:20:27.987Z,95.89
2022-09-18T00:20:37.996Z,96.00
2022-09-18T00:20:48.018Z,96.00
2022-09-18T00:20:58.066Z,96.00
2022-09-18T00:21:08.143Z,96.10
2022-09-18T00:21:18.197Z,96.10
2022-09-18T00:21:28.264Z,96.10
2022-09-18T00:21:38.327Z,96.10
2022-09-18T00:21:48.400Z,96.10
2022-09-18T00:21:58.446Z,96.20
2022-09-18T00:22:08.507Z,96.20
2022-09-18T00:22:18.586Z,96.20
2022-09-18T00:22:28.656Z,96.20
2022-09-18T00:22:38.727Z,96.20
2022-09-18T00:22:48.785Z,96.20
2022-09-18T00:22:58.856Z,96.20
2022-09-18T00:23:08.936Z,96.20
2022-09-18T00:23:19.008Z,96.20
2022-09-18T00:23:29.066Z,96.20
2022-09-18T00:23:39.115Z,96.30
2022-09-18T00:23:49.193Z,96.30
2022-09-18T00:23:59.255Z,96.30
2022-09-18T00:24:09.324Z,96.30
2022-09-18T00:24:19.385Z,96.41
2022-09-18T00:24:29.487Z,96.41
2022-09-18T00:24:39.546Z,96.41
2022-09-18T00:24:49.723Z,96.51
2022-09-18T00:24:59.775Z,96.51
2022-09-18T00:25:09.863Z,96.51
2022-09-18T00:25:19.937Z,96.51
2022-09-18T00:25:30.006Z,96.61
2022-09-18T00:25:40.075Z,96.61
2022-09-18T00:25:50.143Z,96.61
2022-09-18T00:26:00.205Z,96.61
2022-09-18T00:26:10.256Z,96.71
2022-09-18T00:26:20.317Z,96.71
2022-09-18T00:26:30.394Z,96.71
2022-09-18T00:26:40.455Z,96.71
2022-09-18T00:26:50.535Z,96.81
2022-09-18T00:27:00.674Z,96.81
2022-09-18T00:27:10.753Z,96.81
2022-09-18T00:27:20.836Z,96.81
2022-09-18T00:27:30.904Z,96.81
2022-09-18T00:27:40.983Z,96.81
2022-09-18T00:27:51.055Z,96.81
2022-09-18T00:28:01.136Z,96.81
2022-09-18T00:28:11.215Z,96.81
2022-09-18T00:28:21.287Z,96.81
2022-09-18T00:28:31.365Z,96.81
2022-09-18T00:28:41.448Z,96.81
2022-09-18T00:28:51.517Z,96.81
2022-09-18T00:29:01.606Z,96.81
2022-09-18T00:29:11.685Z,96.81
2022-09-18T00:29:21.764Z,96.81
2022-09-18T00:29:31.846Z,96.81
2022-09-18T00:29:41.917Z,96.81
2022-09-18T00:29:51.916Z,96.92
2022-09-18T00:30:01.986Z,96.92
2022-09-18T00:30:12.046Z,96.92
2022-09-18T00:30:22.116Z,96.92
2022-09-18T00:30:32.193Z,96.92
2022-09-18T00:30:42.256Z,96.87
2022-09-18T00:30:52.464Z,96.87
2022-09-18T00:31:02.432Z,96.87
2022-09-18T00:31:12.584Z,96.87
2022-09-18T00:31:22.785Z,96.87
2022-09-18T00:31:32.757Z,96.87
2022-09-18T00:31:42.891Z,96.87
2022-09-18T00:31:52.919Z,96.87
2022-09-18T00:32:02.845Z,96.71
2022-09-18T00:32:12.906Z,96.71
2022-09-18T00:32:22.974Z,96.61
2022-09-18T00:32:33.033Z,96.61
2022-09-18T00:32:43.100Z,96.51
2022-09-18T00:32:53.166Z,96.51
2022-09-18T00:33:03.255Z,96.41
2022-09-18T00:33:13.339Z,96.41
2022-09-18T00:33:23.407Z,96.41
2022-09-18T00:33:33.476Z,96.41
2022-09-18T00:33:43.546Z,96.41
2022-09-18T00:33:53.615Z,96.41
2022-09-18T00:34:03.673Z,96.41
2022-09-18T00:34:13.735Z,96.41
2022-09-18T00:34:23.814Z,96.41
2022-09-18T00:34:33.877Z,96.51
2022-09-18T00:34:44.005Z,96.51
2022-09-18T00:34:54.109Z,96.51
2022-09-18T00:35:04.174Z,96.51
2022-09-18T00:35:14.246Z,96.51
2022-09-18T00:35:24.316Z,96.51
2022-09-18T00:35:34.386Z,96.51
2022-09-18T00:35:44.404Z,96.51
2022-09-18T00:35:54.468Z,96.51
2022-09-18T00:36:04.537Z,96.51
2022-09-18T00:36:14.660Z,96.51
2022-09-18T00:36:24.745Z,96.41
2022-09-18T00:36:34.814Z,96.30
2022-09-18T00:36:44.897Z,96.20
2022-09-18T00:36:54.950Z,96.10
2022-09-18T00:37:05.023Z,96.00
2022-09-18T00:37:15.074Z,96.00
2022-09-18T00:37:25.164Z,96.00
2022-09-18T00:37:35.237Z,96.00
2022-09-18T00:37:45.316Z,96.10
2022-09-18T00:37:55.389Z,96.10
2022-09-18T00:38:05.475Z,96.10
2022-09-18T00:38:15.535Z,96.10
2022-09-18T00:38:25.614Z,96.10
2022-09-18T00:38:35.675Z,96.10
2022-09-18T00:38:45.747Z,96.10
2022-09-18T00:38:55.841Z,96.10
2022-09-18T00:39:05.906Z,96.10
2022-09-18T00:39:15.996Z,96.10
2022-09-18T00:39:26.076Z,96.10
2022-09-18T00:39:36.145Z,96.20
2022-09-18T00:39:46.224Z,96.20
2022-09-18T00:39:56.420Z,96.20
2022-09-18T00:40:06.595Z,96.20
2022-09-18T00:40:16.711Z,96.10
2022-09-18T00:40:26.870Z,96.00
2022-09-18T00:40:37.068Z,96.00
2022-09-18T00:40:46.983Z,96.00
2022-09-18T00:40:57.067Z,96.00
2022-09-18T00:41:07.174Z,96.00
2022-09-18T00:41:17.257Z,96.00
2022-09-18T00:41:27.342Z,96.00
2022-09-18T00:41:37.408Z,96.00
2022-09-18T00:41:47.493Z,96.00
2022-09-18T00:41:57.587Z,96.00
2022-09-18T00:42:07.675Z,96.00
2022-09-18T00:42:17.745Z,96.00
2022-09-18T00:42:27.824Z,96.00
2022-09-18T00:42:37.904Z,96.00
2022-09-18T00:42:47.992Z,96.10
2022-09-18T00:42:58.056Z,96.10
2022-09-18T00:43:08.144Z,96.10
2022-09-18T00:43:18.218Z,96.00
2022-09-18T00:43:28.293Z,95.89
2022-09-18T00:43:38.354Z,95.79
2022-09-18T00:43:48.429Z,95.79
2022-09-18T00:43:58.498Z,95.69
2022-09-18T00:44:08.574Z,95.59
2022-09-18T00:44:18.636Z,95.48
2022-09-18T00:44:28.704Z,95.38
2022-09-18T00:44:38.793Z,95.38
2022-09-18T00:44:48.854Z,95.38
2022-09-18T00:44:58.965Z,95.28
2022-09-18T00:45:09.036Z,95.28
2022-09-18T00:45:19.122Z,95.28
2022-09-18T00:45:29.227Z,95.28
2022-09-18T00:45:39.326Z,95.38
2022-09-18T00:45:49.394Z,95.38
2022-09-18T00:45:59.453Z,95.38
2022-09-18T00:46:09.580Z,95.28
2022-09-18T00:46:19.706Z,95.18
2022-09-18T00:46:29.825Z,95.07
2022-09-18T00:46:40.021Z,94.97
2022-09-18T00:46:49.965Z,94.87
2022-09-18T00:47:00.026Z,94.87
2022-09-18T00:47:10.105Z,94.87
2022-09-18T00:47:20.178Z,94.97
2022-09-18T00:47:30.234Z,94.97
2022-09-18T00:47:40.303Z,94.97
2022-09-18T00:47:50.366Z,94.87
2022-09-18T00:48:00.445Z,94.87
2022-09-18T00:48:10.514Z,94.97
2022-09-18T00:48:20.594Z,94.97
2022-09-18T00:48:30.685Z,94.97
2022-09-18T00:48:40.765Z,94.97
2022-09-18T00:48:50.892Z,95.07
2022-09-18T00:49:01.012Z,95.07
2022-09-18T00:49:11.084Z,95.07
2022-09-18T00:49:21.184Z,95.18
2022-09-18T00:49:31.244Z,95.18
2022-09-18T00:49:41.333Z,95.18
2022-09-18T00:49:51.423Z,95.18
2022-09-18T00:50:01.486Z,95.18
2022-09-18T00:50:11.545Z,95.18
2022-09-18T00:50:21.613Z,95.28
2022-09-18T00:50:31.662Z,95.28
2022-09-18T00:50:41.723Z,95.28
2022-09-18T00:50:51.795Z,95.28
2022-09-18T00:51:01.854Z,95.28
2022-09-18T00:51:11.944Z,95.28
2022-09-18T00:51:22.044Z,95.28
2022-09-18T00:51:32.165Z,95.28
2022-09-18T00:51:42.252Z,95.28
2022-09-18T00:51:52.323Z,95.28
2022-09-18T00:52:02.394Z,95.38
2022-09-18T00:52:12.454Z,95.38
2022-09-18T00:52:22.531Z,95.38
2022-09-18T00:52:32.604Z,95.38
2022-09-18T00:52:42.664Z,95.38
2022-09-18T00:52:52.763Z,95.38
2022-09-18T00:53:02.832Z,95.38
2022-09-18T00:53:12.905Z,95.38
2022-09-18T00:53:22.976Z,95.48
2022-09-18T00:53:33.073Z,95.48
2022-09-18T00:53:43.153Z,95.48
2022-09-18T00:53:53.222Z,95.48
2022-09-18T00:54:03.292Z,95.48
2022-09-18T00:54:13.362Z,95.48
2022-09-18T00:54:23.857Z,95.48
2022-09-18T00:54:33.451Z,95.48
2022-09-18T00:54:43.564Z,95.48
2022-09-18T00:54:53.644Z,95.48
2022-09-18T00:55:03.723Z,95.48
2022-09-18T00:55:13.794Z,95.48
2022-09-18T00:55:23.872Z,95.48
2022-09-18T00:55:33.945Z,95.38
2022-09-18T00:55:44.013Z,95.48
2022-09-18T00:55:54.085Z,95.48
2022-09-18T00:56:04.144Z,95.38
2022-09-18T00:56:14.242Z,95.38
2022-09-18T00:56:24.304Z,95.38
2022-09-18T00:56:34.383Z,95.38
2022-09-18T00:56:44.472Z,95.28
2022-09-18T00:56:54.554Z,95.28
2022-09-18T00:57:04.632Z,95.28
2022-09-18T00:57:14.694Z,95.28
2022-09-18T00:57:27.396Z,95.28
2022-09-18T00:57:34.901Z,95.28
2022-09-18T00:57:44.964Z,95.28
2022-09-18T00:57:55.058Z,95.38
2022-09-18T00:58:05.154Z,95.38
2022-09-18T00:58:15.233Z,95.38
2022-09-18T00:58:25.313Z,95.38
2022-09-18T00:58:35.395Z,95.38
2022-09-18T00:58:45.472Z,95.48
2022-09-18T00:58:55.559Z,95.48
2022-09-18T00:59:05.612Z,95.48
2022-09-18T00:59:15.674Z,95.48
2022-09-18T00:59:25.746Z,95.48
2022-09-18T00:59:35.821Z,95.48
2022-09-18T00:59:45.885Z,95.48
2022-09-18T00:59:55.973Z,95.48
2022-09-18T01:00:06.103Z,95.59
2022-09-18T01:00:16.233Z,95.48
2022-09-18T01:00:26.299Z,95.28
2022-09-18T01:00:36.385Z,95.07
2022-09-18T01:00:46.468Z,94.87
2022-09-18T01:00:56.647Z,94.77
2022-09-18T01:01:06.626Z,94.67
2022-09-18T01:01:16.782Z,94.67
2022-09-18T01:01:26.931Z,94.56
2022-09-18T01:01:36.895Z,94.60
2022-09-18T01:01:47.041Z,94.60
2022-09-18T01:01:57.232Z,94.51
2022-09-18T01:02:07.199Z,94.40
2022-09-18T01:02:17.318Z,94.20
2022-09-18T01:02:27.480Z,94.20
2022-09-18T01:02:37.372Z,94.20
2022-09-18T01:02:47.437Z,94.20
2022-09-18T01:02:57.513Z,94.20
2022-09-18T01:03:07.575Z,94.20
2022-09-18T01:03:17.644Z,94.20
2022-09-18T01:03:27.713Z,94.20
2022-09-18T01:03:37.782Z,94.20
2022-09-18T01:03:47.883Z,94.10
2022-09-18T01:03:57.963Z,94.10
2022-09-18T01:04:08.110Z,94.20
2022-09-18T01:04:18.155Z,94.20
2022-09-18T01:04:28.260Z,94.20
2022-09-18T01:04:38.323Z,94.20
2022-09-18T01:04:48.392Z,94.10
2022-09-18T01:04:58.453Z,94.10
2022-09-18T01:05:08.542Z,94.10
2022-09-18T01:05:18.611Z,93.99
2022-09-18T01:05:28.693Z,93.99
2022-09-18T01:05:38.786Z,93.99
2022-09-18T01:05:48.835Z,93.99
2022-09-18T01:05:58.922Z,94.10
2022-09-18T01:06:08.990Z,94.20
2022-09-18T01:06:19.073Z,94.20
2022-09-18T01:06:29.144Z,94.20
2022-09-18T01:06:39.214Z,94.30
2022-09-18T01:06:49.295Z,94.30
2022-09-18T01:06:59.382Z,94.40
2022-09-18T01:07:09.442Z,94.40
2022-09-18T01:07:19.583Z,94.40
2022-09-18T01:07:29.653Z,94.51
2022-09-18T01:07:39.724Z,94.60
2022-09-18T01:07:49.793Z,94.60
2022-09-18T01:07:59.863Z,94.71
2022-09-18T01:08:09.941Z,94.81
2022-09-18T01:08:20.013Z,94.81
2022-09-18T01:08:30.080Z,94.81
2022-09-18T01:08:43.927Z,94.81
2022-09-18T01:08:50.232Z,94.81
2022-09-18T01:09:00.333Z,94.92
2022-09-18T01:09:10.397Z,94.92
2022-09-18T01:09:28.344Z,94.92
2022-09-18T01:09:31.403Z,95.02
2022-09-18T01:09:41.464Z,95.02
2022-09-18T01:09:51.552Z,95.02
2022-09-18T01:10:01.622Z,95.02
2022-09-18T01:10:11.691Z,95.02
2022-09-18T01:10:21.751Z,94.92
2022-09-18T01:10:31.812Z,94.92
2022-09-18T01:10:41.932Z,94.92
2022-09-18T01:10:51.996Z,94.92
2022-09-18T01:11:02.093Z,94.92
2022-09-18T01:11:15.395Z,94.81
2022-09-18T01:11:25.529Z,94.81
2022-09-18T01:11:35.592Z,94.71
2022-09-18T01:11:45.644Z,94.71
2022-09-18T01:11:55.681Z,94.71
2022-09-18T01:12:05.734Z,94.71
2022-09-18T01:12:15.734Z,94.71
2022-09-18T01:12:25.784Z,94.71
2022-09-18T01:12:35.835Z,94.71
2022-09-18T01:12:45.904Z,94.71
2022-09-18T01:12:55.944Z,94.71
2022-09-18T01:13:05.993Z,94.71
2022-09-18T01:13:16.032Z,94.81
2022-09-18T01:13:26.083Z,94.81
2022-09-18T01:13:36.132Z,94.81
2022-09-18T01:13:46.182Z,94.81
2022-09-18T01:13:56.213Z,94.92
2022-09-18T01:14:06.261Z,94.92
2022-09-18T01:14:16.302Z,94.92
2022-09-18T01:14:26.343Z,95.02
2022-09-18T01:14:36.383Z,95.02
2022-09-18T01:14:46.421Z,95.02
2022-09-18T01:14:56.475Z,95.02
2022-09-18T01:15:06.523Z,95.02
2022-09-18T01:15:16.563Z,95.02
2022-09-18T01:15:26.611Z,95.02
2022-09-18T01:15:36.653Z,95.02
2022-09-18T01:15:46.738Z,95.02
2022-09-18T01:15:56.842Z,95.02
2022-09-18T01:16:06.896Z,95.02
2022-09-18T01:16:17.005Z,95.02
2022-09-18T01:16:27.071Z,95.02
2022-09-18T01:16:37.212Z,95.02
2022-09-18T01:16:47.114Z,94.92
2022-09-18T01:16:57.285Z,94.92
2022-09-18T01:17:07.322Z,94.92
2022-09-18T01:17:17.370Z,94.92
2022-09-18T01:17:27.404Z,95.02
2022-09-18T01:17:37.445Z,95.02
2022-09-18T01:17:47.493Z,95.02
2022-09-18T01:17:57.541Z,95.02
2022-09-18T01:18:07.582Z,94.92
2022-09-18T01:18:18.552Z,94.92
2022-09-18T01:18:28.616Z,94.92
2022-09-18T01:18:38.743Z,95.02
2022-09-18T01:18:48.772Z,95.02
2022-09-18T01:18:58.823Z,95.02
2022-09-18T01:19:08.884Z,94.92
2022-09-18T01:19:18.952Z,94.92
2022-09-18T01:19:28.992Z,94.81
2022-09-18T01:19:39.022Z,94.81
2022-09-18T01:19:49.063Z,94.81
2022-09-18T01:19:59.111Z,94.81
2022-09-18T01:20:09.155Z,94.81
2022-09-18T01:20:19.193Z,94.81
2022-09-18T01:20:29.253Z,94.81
2022-09-18T01:20:39.301Z,94.71
2022-09-18T01:20:49.395Z,94.71
2022-09-18T01:20:59.498Z,94.71
2022-09-18T01:21:09.543Z,94.71
2022-09-18T01:21:19.601Z,94.71
2022-09-18T01:21:29.701Z,94.71
2022-09-18T01:21:39.751Z,94.71
2022-09-18T01:21:49.803Z,94.81
2022-09-18T01:21:59.866Z,94.81
2022-09-18T01:22:09.925Z,94.81
2022-09-18T01:22:19.963Z,94.81
2022-09-18T01:22:30.055Z,94.92
2022-09-18T01:22:40.093Z,94.92
2022-09-18T01:22:50.154Z,94.92
2022-09-18T01:23:00.253Z,94.92
2022-09-18T01:23:10.299Z,94.92
2022-09-18T01:23:20.406Z,94.71
2022-09-18T01:23:30.450Z,94.51
2022-09-18T01:23:40.472Z,94.40
2022-09-18T01:23:50.514Z,94.30
2022-09-18T01:24:00.611Z,94.20
2022-09-18T01:24:10.670Z,94.30
2022-09-18T01:24:20.813Z,94.30
2022-09-18T01:24:30.852Z,94.40
2022-09-18T01:24:41.838Z,94.40
2022-09-18T01:24:51.864Z,94.51
2022-09-18T01:25:01.900Z,94.51
2022-09-18T01:25:11.943Z,94.51
2022-09-18T01:25:21.992Z,94.51
2022-09-18T01:25:32.032Z,94.51
2022-09-18T01:25:42.071Z,94.40
2022-09-18T01:25:52.134Z,94.40
2022-09-18T01:26:02.211Z,94.40
2022-09-18T01:26:12.254Z,94.30
2022-09-18T01:26:22.412Z,94.30
2022-09-18T01:26:32.413Z,94.34
2022-09-18T01:26:42.582Z,94.34
2022-09-18T01:26:52.671Z,94.40
2022-09-18T01:27:02.752Z,94.40
2022-09-18T01:27:12.774Z,94.45
2022-09-18T01:27:22.820Z,94.24
2022-09-18T01:27:32.852Z,94.10
2022-09-18T01:27:42.901Z,94.04
2022-09-18T01:27:52.952Z,94.04
2022-09-18T01:28:02.982Z,94.04
2022-09-18T01:28:13.021Z,94.04
2022-09-18T01:28:23.072Z,94.14
2022-09-18T01:28:33.120Z,94.14
2022-09-18T01:28:43.193Z,94.24
2022-09-18T01:28:53.232Z,94.34
2022-09-18T01:29:03.271Z,94.34
2022-09-18T01:29:13.335Z,94.45
2022-09-18T01:29:23.392Z,94.40
2022-09-18T01:29:33.422Z,94.45
2022-09-18T01:29:43.451Z,94.45
2022-09-18T01:29:53.502Z,94.45
2022-09-18T01:30:03.552Z,94.51
2022-09-18T01:30:13.633Z,94.51
2022-09-18T01:30:23.680Z,94.55
2022-09-18T01:30:33.722Z,94.51
2022-09-18T01:30:43.751Z,94.40
2022-09-18T01:30:53.815Z,94.45
2022-09-18T01:31:03.862Z,94.45
2022-09-18T01:31:14.035Z,94.40
2022-09-18T01:31:24.117Z,94.45
2022-09-18T01:31:34.246Z,94.51
2022-09-18T01:31:44.342Z,94.55
2022-09-18T01:31:54.413Z,94.51
2022-09-18T01:32:04.453Z,94.60
2022-09-18T01:32:14.511Z,94.65
2022-09-18T01:32:24.552Z,94.75
2022-09-18T01:32:34.581Z,94.71
2022-09-18T01:32:44.622Z,94.60
2022-09-18T01:32:54.663Z,94.65
2022-09-18T01:33:04.700Z,94.65
2022-09-18T01:33:14.731Z,94.65
2022-09-18T01:33:24.766Z,94.65
2022-09-18T01:33:36.738Z,94.65
2022-09-18T01:33:46.769Z,94.75
2022-09-18T01:33:56.794Z,94.75
2022-09-18T01:34:06.833Z,94.85
2022-09-18T01:34:16.881Z,94.85
2022-09-18T01:34:26.980Z,94.85
2022-09-18T01:34:37.003Z,94.85
2022-09-18T01:34:47.041Z,94.85
2022-09-18T01:34:57.093Z,94.85
2022-09-18T01:35:18.786Z,94.85
2022-09-18T01:35:39.993Z,94.85
2022-09-18T01:35:41.886Z,94.96
2022-09-18T01:35:44.335Z,94.96
2022-09-18T01:35:50.033Z,94.96
2022-09-18T01:36:00.104Z,94.96
2022-09-18T01:36:10.211Z,94.96
2022-09-18T01:36:20.270Z,94.96
2022-09-18T01:36:30.330Z,94.96
2022-09-18T01:36:40.424Z,94.96
2022-09-18T01:36:50.470Z,94.96
2022-09-18T01:37:00.512Z,94.96
2022-09-18T01:37:10.590Z,94.96
2022-09-18T01:37:20.634Z,94.96
2022-09-18T01:37:30.750Z,94.96
2022-09-18T01:37:40.813Z,94.96
2022-09-18T01:37:50.862Z,94.96
2022-09-18T01:38:00.922Z,95.06
2022-09-18T01:38:10.961Z,95.06
2022-09-18T01:38:21.031Z,95.06
2022-09-18T01:38:31.089Z,94.96
2022-09-18T01:38:41.118Z,94.96
2022-09-18T01:38:51.169Z,94.85
2022-09-18T01:39:01.330Z,94.85
2022-09-18T01:39:11.221Z,94.75
2022-09-18T01:39:21.291Z,94.75
2022-09-18T01:39:31.362Z,94.85
2022-09-18T01:39:41.423Z,94.85
2022-09-18T01:39:51.499Z,94.85
2022-09-18T01:40:01.589Z,94.75
2022-09-18T01:40:11.715Z,94.75
2022-09-18T01:40:21.793Z,94.75
2022-09-18T01:40:31.884Z,94.75
2022-09-18T01:40:41.962Z,94.65
2022-09-18T01:40:52.000Z,94.65
2022-09-18T01:41:02.040Z,94.65
2022-09-18T01:41:12.098Z,94.55
2022-09-18T01:41:22.138Z,94.55
2022-09-18T01:41:32.192Z,94.55
2022-09-18T01:41:42.312Z,94.55
2022-09-18T01:41:52.362Z,94.65
2022-09-18T01:42:02.420Z,94.65
2022-09-18T01:42:12.471Z,94.65
2022-09-18T01:42:22.552Z,94.65
2022-09-18T01:42:32.602Z,94.45
2022-09-18T01:42:42.652Z,94.34
2022-09-18T01:42:52.712Z,94.24
2022-09-18T01:43:02.745Z,94.24
2022-09-18T01:43:12.848Z,94.24
2022-09-18T01:43:22.902Z,94.24
2022-09-18T01:43:32.954Z,94.24
2022-09-18T01:43:42.998Z,94.24
2022-09-18T01:43:53.041Z,94.14
2022-09-18T01:44:03.109Z,94.14
2022-09-18T01:44:13.173Z,94.04
2022-09-18T01:44:23.229Z,94.04
2022-09-18T01:44:33.285Z,94.04
2022-09-18T01:44:43.351Z,94.04
2022-09-18T01:44:53.392Z,94.04
2022-09-18T01:45:03.432Z,94.14
2022-09-18T01:45:13.480Z,94.14
2022-09-18T01:45:23.564Z,94.14
2022-09-18T01:45:33.681Z,94.24
2022-09-18T01:45:43.751Z,94.24
2022-09-18T01:45:53.820Z,94.14
2022-09-18T01:46:03.970Z,94.14
2022-09-18T01:46:14.117Z,94.04
2022-09-18T01:46:24.324Z,94.14
2022-09-18T01:46:34.329Z,94.14
2022-09-18T01:46:44.300Z,94.14
2022-09-18T01:46:54.430Z,94.24
2022-09-18T01:47:04.499Z,94.24
2022-09-18T01:47:14.570Z,94.34
2022-09-18T01:47:24.588Z,94.34
2022-09-18T01:47:34.647Z,94.34
2022-09-18T01:47:44.743Z,94.34
2022-09-18T01:47:54.790Z,94.45
2022-09-18T01:48:04.950Z,94.45
2022-09-18T01:48:14.991Z,94.45
2022-09-18T01:48:25.030Z,94.45
2022-09-18T01:48:35.073Z,94.45
2022-09-18T01:48:45.131Z,94.45
2022-09-18T01:48:55.210Z,94.45
2022-09-18T01:49:05.299Z,94.55
2022-09-18T01:49:15.331Z,94.55
2022-09-18T01:49:25.383Z,94.55
2022-09-18T01:49:35.431Z,94.55
2022-09-18T01:49:45.472Z,94.55
2022-09-18T01:49:55.527Z,94.55
2022-09-18T01:50:05.579Z,94.55
2022-09-18T01:50:15.615Z,94.45
2022-09-18T01:50:25.661Z,94.45
2022-09-18T01:50:35.710Z,94.34
2022-09-18T01:50:45.762Z,94.14
2022-09-18T01:50:55.810Z,94.14
2022-09-18T01:51:05.889Z,94.14
2022-09-18T01:51:15.949Z,94.14
2022-09-18T01:51:25.990Z,94.14
2022-09-18T01:51:36.031Z,94.14
2022-09-18T01:51:46.079Z,94.14
2022-09-18T01:51:56.119Z,94.24
2022-09-18T01:52:06.162Z,94.24
2022-09-18T01:52:16.190Z,94.24
2022-09-18T01:52:26.271Z,94.24
2022-09-18T01:52:36.301Z,94.24
2022-09-18T01:52:46.358Z,94.24
2022-09-18T01:52:56.379Z,94.24
2022-09-18T01:53:06.438Z,94.24
2022-09-18T01:53:16.469Z,94.24
2022-09-18T01:53:26.540Z,94.24
2022-09-18T01:53:36.570Z,94.34
2022-09-18T01:53:46.620Z,94.34
2022-09-18T01:53:56.650Z,94.34
2022-09-18T01:54:06.729Z,94.45
2022-09-18T01:54:16.810Z,94.45
2022-09-18T01:54:26.866Z,94.45
2022-09-18T01:54:39.569Z,94.55
2022-09-18T01:54:47.061Z,94.55
2022-09-18T01:54:57.109Z,94.55
2022-09-18T01:55:07.130Z,94.55
2022-09-18T01:55:17.167Z,94.55
2022-09-18T01:55:27.201Z,94.55
2022-09-18T01:55:37.250Z,94.55
2022-09-18T01:55:47.371Z,94.55
2022-09-18T01:55:57.422Z,94.55
2022-09-18T01:56:07.488Z,94.55
2022-09-18T01:56:17.531Z,94.55
2022-09-18T01:56:27.561Z,94.55
2022-09-18T01:56:37.621Z,94.55
2022-09-18T01:56:47.678Z,94.55
2022-09-18T01:56:57.712Z,94.55
2022-09-18T01:57:07.749Z,94.65
2022-09-18T01:57:17.790Z,94.65
2022-09-18T01:57:27.821Z,94.65
2022-09-18T01:57:37.876Z,94.55
2022-09-18T01:57:47.898Z,94.55
2022-09-18T01:57:57.929Z,94.55
2022-09-18T01:58:07.970Z,94.55
2022-09-18T01:58:18.038Z,94.45
2022-09-18T01:58:28.070Z,94.45
2022-09-18T01:58:38.119Z,94.55
2022-09-18T01:58:48.160Z,94.55
2022-09-18T01:58:58.231Z,94.55
2022-09-18T01:59:08.258Z,94.65
2022-09-18T01:59:18.289Z,94.65
2022-09-18T01:59:28.321Z,94.65
2022-09-18T01:59:38.401Z,94.65
2022-09-18T01:59:48.450Z,94.75
2022-09-18T01:59:58.509Z,94.75
2022-09-18T02:00:08.529Z,94.75
2022-09-18T02:00:18.568Z,94.85
2022-09-18T02:00:28.603Z,94.85
2022-09-18T02:00:38.657Z,94.96
2022-09-18T02:00:48.700Z,94.96
2022-09-18T02:00:58.738Z,94.96
2022-09-18T02:01:08.791Z,94.96
2022-09-18T02:01:18.884Z,94.96
2022-09-18T02:01:29.006Z,94.96
2022-09-18T02:01:39.036Z,94.85
2022-09-18T02:01:49.137Z,94.85
2022-09-18T02:01:59.300Z,94.85
2022-09-18T02:02:09.300Z,94.85
2022-09-18T02:02:19.414Z,94.85
2022-09-18T02:02:29.435Z,94.75
2022-09-18T02:02:39.498Z,94.85
2022-09-18T02:02:50.287Z,94.85
2022-09-18T02:03:00.048Z,94.85
2022-09-18T02:03:10.119Z,94.85
2022-09-18T02:03:20.228Z,94.96
2022-09-18T02:03:30.241Z,94.96
2022-09-18T02:03:40.282Z,94.96
2022-09-18T02:03:50.370Z,94.96
2022-09-18T02:04:00.449Z,94.96
2022-09-18T02:04:10.499Z,94.96
2022-09-18T02:04:20.599Z,95.06
2022-09-18T02:04:30.649Z,95.06
2022-09-18T02:04:40.768Z,95.06
2022-09-18T02:04:50.822Z,95.06
2022-09-18T02:05:00.900Z,95.06
2022-09-18T02:05:10.940Z,95.06
2022-09-18T02:05:20.981Z,95.17
2022-09-18T02:05:31.079Z,95.06
2022-09-18T02:05:41.116Z,95.06
2022-09-18T02:05:51.219Z,95.06
2022-09-18T02:06:01.300Z,95.06
2022-09-18T02:06:11.366Z,95.06
2022-09-18T02:06:21.416Z,95.06
2022-09-18T02:06:31.450Z,95.06
2022-09-18T02:06:41.482Z,95.06
2022-09-18T02:06:51.520Z,95.06
2022-09-18T02:07:01.550Z,95.06
2022-09-18T02:07:11.589Z,95.06
2022-09-18T02:07:21.649Z,95.06
2022-09-18T02:07:31.712Z,95.06
2022-09-18T02:07:41.739Z,95.17
2022-09-18T02:07:51.780Z,95.06
2022-09-18T02:08:01.820Z,95.06
2022-09-18T02:08:11.866Z,95.06
2022-09-18T02:08:21.910Z,95.06
2022-09-18T02:08:31.958Z,95.06
2022-09-18T02:08:41.980Z,95.06
2022-09-18T02:08:52.018Z,94.96
2022-09-18T02:09:02.153Z,94.96
2022-09-18T02:09:12.219Z,94.96
2022-09-18T02:09:22.259Z,94.96
2022-09-18T02:09:32.292Z,94.85
2022-09-18T02:09:42.326Z,94.85
2022-09-18T02:09:52.356Z,94.96